createdAt,value
2022-10-13T00:01:01.944Z,100.00
2022-10-13T00:03:29.789Z,100.00
2022-10-13T00:05:57.659Z,100.00
2022-10-13T00:08:26.544Z,100.00
2022-10-13T00:10:54.342Z,100.00
2022-10-13T00:13:22.163Z,100.00
2022-10-13T00:15:50.222Z,100.00
2022-10-13T00:18:19.802Z,100.00
2022-10-13T00:20:49.878Z,100.00
2022-10-13T00:23:18.673Z,100.00
2022-10-13T00:25:51.049Z,100.00
2022-10-13T00:28:20.883Z,100.00
2022-10-13T00:30:48.748Z,100.00
2022-10-13T00:33:16.792Z,100.00
2022-10-13T00:35:48.313Z,100.00
2022-10-13T00:38:16.889Z,100.00
2022-10-13T00:40:46.492Z,100.00
2022-10-13T00:43:18.058Z,100.00
2022-10-13T00:45:46.134Z,100.00
2022-10-13T00:48:14.297Z,100.00
2022-10-13T00:50:43.470Z,100.00
2022-10-13T00:53:13.328Z,100.00
2022-10-13T00:55:44.681Z,100.00
2022-10-13T00:58:17.404Z,100.00
2022-10-13T01:00:47.816Z,100.00
2022-10-13T01:03:16.044Z,100.00
2022-10-13T01:05:44.318Z,100.00
2022-10-13T01:08:15.056Z,100.00
2022-10-13T01:10:53.669Z,100.00
2022-10-13T01:13:29.125Z,100.00
2022-10-13T01:16:01.197Z,100.00
2022-10-13T01:18:39.046Z,100.00
2022-10-13T01:21:31.105Z,100.00
2022-10-13T01:24:38.953Z,100.00
2022-10-13T01:27:20.392Z,100.00
2022-10-13T01:30:09.886Z,100.00
2022-10-13T01:32:59.664Z,100.00
2022-10-13T01:35:37.470Z,100.00
2022-10-13T01:38:10.241Z,100.00
2022-10-13T01:40:43.722Z,100.00
2022-10-13T01:43:17.986Z,100.00
2022-10-13T01:45:51.919Z,100.00
2022-10-13T01:48:21.134Z,100.00
2022-10-13T01:50:49.921Z,100.00
2022-10-13T01:53:19.934Z,100.00
2022-10-13T01:55:52.110Z,100.00
2022-10-13T01:58:20.228Z,100.00
2022-10-13T02:01:03.423Z,100.00
2022-10-13T02:03:39.966Z,100.00
2022-10-13T02:06:19.128Z,100.00
2022-10-13T02:08:57.826Z,100.00
2022-10-13T02:11:26.291Z,100.00
2022-10-13T02:14:00.927Z,100.00
2022-10-13T02:16:34.790Z,100.00
2022-10-13T02:19:04.715Z,100.00
2022-10-13T02:21:33.309Z,100.00
2022-10-13T02:24:01.486Z,100.00
2022-10-13T02:26:31.800Z,100.00
2022-10-13T02:29:00.033Z,100.00
2022-10-13T02:31:27.826Z,100.00
2022-10-13T02:33:56.963Z,100.00
2022-10-13T02:36:25.288Z,100.00
2022-10-13T02:38:53.066Z,100.00
2022-10-13T02:41:20.878Z,100.00
2022-10-13T02:43:48.708Z,100.00
2022-10-13T02:46:16.507Z,100.00
2022-10-13T02:48:44.287Z,100.00
2022-10-13T02:51:13.497Z,100.00
2022-10-13T02:53:41.334Z,100.00
2022-10-13T02:56:09.277Z,100.00
2022-10-13T02:58:37.740Z,100.00
2022-10-13T03:01:10.135Z,100.00
2022-10-13T03:03:38.182Z,100.00
2022-10-13T03:06:06.629Z,100.00
2022-10-13T03:08:36.609Z,100.00
2022-10-13T03:11:04.542Z,100.00
2022-10-13T03:13:32.427Z,100.00
2022-10-13T03:16:00.331Z,100.00
2022-10-13T03:18:28.180Z,100.00
2022-10-13T03:21:00.437Z,100.00
2022-10-13T03:23:28.529Z,100.00
2022-10-13T03:25:57.933Z,100.00
2022-10-13T03:28:25.831Z,100.00
2022-10-13T03:31:01.442Z,100.00
2022-10-13T03:33:29.311Z,100.00
2022-10-13T03:35:59.724Z,100.00
2022-10-13T03:38:28.453Z,100.00
2022-10-13T03:40:58.180Z,100.00
2022-10-13T03:43:26.335Z,100.00
2022-10-13T03:45:57.837Z,100.00
2022-10-13T03:48:25.994Z,100.00
2022-10-13T03:50:53.885Z,100.00
2022-10-13T03:53:22.048Z,100.00
2022-10-13T03:55:50.778Z,100.00
2022-10-13T03:58:20.754Z,100.00
2022-10-13T04:00:48.971Z,100.00
2022-10-13T04:03:17.672Z,100.00
2022-10-13T04:05:45.970Z,100.00
2022-10-13T04:08:14.153Z,100.00
2022-10-13T04:10:42.594Z,100.00
2022-10-13T04:13:10.499Z,100.00
2022-10-13T04:15:40.199Z,100.00
2022-10-13T04:18:09.156Z,100.00
2022-10-13T04:20:39.120Z,100.00
2022-10-13T04:23:07.367Z,100.00
2022-10-13T04:25:36.407Z,100.00
2022-10-13T04:28:04.555Z,100.00
2022-10-13T04:30:33.734Z,100.00
2022-10-13T04:33:02.977Z,100.00
2022-10-13T04:35:31.027Z,100.00
2022-10-13T04:37:58.982Z,100.00
2022-10-13T04:40:28.175Z,100.00
2022-10-13T04:42:56.026Z,100.00
2022-10-13T04:45:23.964Z,100.00
2022-10-13T04:47:52.267Z,100.00
2022-10-13T04:50:21.660Z,100.00
2022-10-13T04:52:49.462Z,100.00
2022-10-13T04:55:17.503Z,100.00
2022-10-13T04:57:45.375Z,100.00
2022-10-13T05:00:14.137Z,100.00
2022-10-13T05:02:41.924Z,100.00
2022-10-13T05:05:10.755Z,100.00
2022-10-13T05:07:39.956Z,100.00
2022-10-13T05:10:08.101Z,100.00
2022-10-13T05:12:36.120Z,100.00
2022-10-13T05:15:04.298Z,100.00
2022-10-13T05:17:35.281Z,100.00
2022-10-13T05:20:04.207Z,100.00
2022-10-13T05:22:32.019Z,100.00
2022-10-13T05:25:01.154Z,100.00
2022-10-13T05:27:29.190Z,100.00
2022-10-13T05:29:56.991Z,100.00
2022-10-13T05:32:24.781Z,100.00
2022-10-13T05:34:52.620Z,100.00
2022-10-13T05:37:22.435Z,100.00
2022-10-13T05:39:50.506Z,100.00
2022-10-13T05:42:20.565Z,100.00
2022-10-13T05:44:48.571Z,100.00
2022-10-13T05:47:16.386Z,100.00
2022-10-13T05:49:44.225Z,100.00
2022-10-13T05:52:13.627Z,100.00
2022-10-13T05:54:44.351Z,100.00
2022-10-13T05:57:17.291Z,100.00
2022-10-13T05:59:50.214Z,100.00
2022-10-13T06:02:20.121Z,100.00
2022-10-13T06:04:51.923Z,100.00
2022-10-13T06:07:19.953Z,100.00
2022-10-13T06:09:47.919Z,100.00
2022-10-13T06:12:15.730Z,100.00
2022-10-13T06:14:43.650Z,100.00
2022-10-13T06:17:12.926Z,100.00
2022-10-13T06:19:40.900Z,100.00
2022-10-13T06:22:08.954Z,100.00
2022-10-13T06:24:36.793Z,100.00
2022-10-13T06:27:04.804Z,100.00
2022-10-13T06:29:33.438Z,100.00
2022-10-13T06:32:01.208Z,100.00
2022-10-13T06:34:30.343Z,100.00
2022-10-13T06:36:58.187Z,100.00
2022-10-13T06:39:26.623Z,100.00
2022-10-13T06:41:55.380Z,100.00
2022-10-13T06:44:23.250Z,100.00
2022-10-13T06:46:51.034Z,100.00
2022-10-13T06:49:19.467Z,100.00
2022-10-13T06:51:48.677Z,100.00
2022-10-13T06:54:16.686Z,100.00
2022-10-13T06:56:44.847Z,100.00
2022-10-13T06:59:12.781Z,100.00
2022-10-13T07:01:41.851Z,100.00
2022-10-13T07:04:09.902Z,100.00
2022-10-13T07:06:37.760Z,100.00
2022-10-13T07:09:07.628Z,100.00
2022-10-13T07:11:35.818Z,100.00
2022-10-13T07:14:03.697Z,100.00
2022-10-13T07:16:31.633Z,100.00
2022-10-13T07:18:59.519Z,100.00
2022-10-13T07:21:27.478Z,100.00
2022-10-13T07:23:55.280Z,100.00
2022-10-13T07:26:24.618Z,100.00
2022-10-13T07:28:52.505Z,100.00
2022-10-13T07:31:21.809Z,100.00
2022-10-13T07:33:51.063Z,100.00
2022-10-13T07:36:19.774Z,100.00
2022-10-13T07:38:47.635Z,100.00
2022-10-13T07:41:16.469Z,100.00
2022-10-13T07:43:45.946Z,100.00
2022-10-13T07:46:14.820Z,100.00
2022-10-13T07:48:42.994Z,100.00
2022-10-13T07:51:13.823Z,100.00
2022-10-13T07:53:42.586Z,100.00
2022-10-13T07:56:12.722Z,100.00
2022-10-13T07:58:42.990Z,100.00
2022-10-13T08:01:12.791Z,100.00
2022-10-13T08:03:44.152Z,100.00
2022-10-13T08:06:15.304Z,100.00
2022-10-13T08:08:43.163Z,100.00
2022-10-13T08:11:16.635Z,100.00
2022-10-13T08:13:48.835Z,100.00
2022-10-13T08:16:18.428Z,100.00
2022-10-13T08:18:46.354Z,100.00
2022-10-13T08:21:45.876Z,100.00
2022-10-13T08:24:06.076Z,100.00
2022-10-13T08:26:34.398Z,100.00
2022-10-13T08:29:20.162Z,100.00
2022-10-13T08:31:51.213Z,100.00
2022-10-13T08:34:19.190Z,100.00
2022-10-13T08:36:47.343Z,100.00
2022-10-13T08:39:15.521Z,100.00
2022-10-13T08:41:45.067Z,100.00
2022-10-13T08:47:16.806Z,100.00
2022-10-13T08:49:46.320Z,100.00
2022-10-13T08:52:19.320Z,100.00
2022-10-13T08:54:47.626Z,100.00
2022-10-13T08:57:15.742Z,100.00
2022-10-13T08:59:43.625Z,100.00
2022-10-13T09:02:15.541Z,100.00
2022-10-13T09:04:49.327Z,100.00
2022-10-13T09:07:20.751Z,100.00
2022-10-13T09:09:52.633Z,100.00
2022-10-13T09:12:24.171Z,100.00
2022-10-13T09:14:59.431Z,100.00
2022-10-13T09:17:31.266Z,100.00
2022-10-13T09:20:02.085Z,100.00
2022-10-13T09:22:31.460Z,100.00
2022-10-13T09:25:19.675Z,100.00
2022-10-13T09:27:49.993Z,100.00
2022-10-13T09:30:29.480Z,100.00
2022-10-13T09:33:15.536Z,100.00
2022-10-13T09:35:45.278Z,100.00
2022-10-13T09:38:16.454Z,100.00
2022-10-13T09:40:56.685Z,100.00
2022-10-13T09:43:30.424Z,100.00
2022-10-13T09:45:59.570Z,100.00
2022-10-13T09:48:31.065Z,100.00
2022-10-13T09:50:59.299Z,100.00
2022-10-13T09:53:32.394Z,100.00
2022-10-13T09:56:15.393Z,100.00
2022-10-13T09:58:49.473Z,100.00
2022-10-13T10:01:23.169Z,100.00
2022-10-13T10:03:53.038Z,100.00
2022-10-13T10:06:24.054Z,100.00
2022-10-13T10:09:04.276Z,100.00
2022-10-13T10:11:38.586Z,100.00
2022-10-13T10:14:16.393Z,100.00
2022-10-13T10:16:47.626Z,100.00
2022-10-13T10:19:23.319Z,100.00
2022-10-13T10:21:58.432Z,100.00
2022-10-13T10:24:33.273Z,100.00
2022-10-13T10:27:04.665Z,100.00
2022-10-13T10:29:44.833Z,100.00
2022-10-13T10:32:26.267Z,100.00
2022-10-13T10:35:00.883Z,100.00
2022-10-13T10:37:45.601Z,100.00
2022-10-13T10:40:27.053Z,100.00
2022-10-13T10:43:11.928Z,100.00
2022-10-13T10:45:41.029Z,100.00
2022-10-13T10:48:19.242Z,100.00
2022-10-13T10:50:49.345Z,100.00
2022-10-13T10:53:25.790Z,100.00
2022-10-13T10:55:57.161Z,100.00
2022-10-13T10:58:31.221Z,100.00
2022-10-13T11:01:06.748Z,100.00
2022-10-13T11:03:44.549Z,100.00
2022-10-13T11:06:26.665Z,100.00
2022-10-13T11:08:55.655Z,100.00
2022-10-13T11:11:40.077Z,100.00
2022-10-13T11:14:31.931Z,100.00
2022-10-13T11:17:19.368Z,100.00
2022-10-13T11:19:49.165Z,97.79
2022-10-13T11:22:26.562Z,95.26
2022-10-13T11:24:59.634Z,94.71
2022-10-13T11:27:42.569Z,95.07
2022-10-13T11:30:42.836Z,94.60
2022-10-13T11:33:50.191Z,94.27
2022-10-13T11:37:01.404Z,92.94
2022-10-13T11:39:52.571Z,90.73
2022-10-13T11:42:36.058Z,92.16
2022-10-13T11:45:14.191Z,93.85
2022-10-13T11:48:03.838Z,94.33
2022-10-13T11:50:40.505Z,94.88
2022-10-13T11:53:16.242Z,92.94
2022-10-13T11:55:53.026Z,90.71
2022-10-13T11:58:22.534Z,90.75
2022-10-13T12:00:52.394Z,90.38
2022-10-13T12:03:27.055Z,90.36
2022-10-13T12:05:59.155Z,90.07
2022-10-13T12:08:29.162Z,90.07
2022-10-13T12:11:00.166Z,90.46
2022-10-13T12:13:31.500Z,87.65
2022-10-13T12:16:03.202Z,86.01
2022-10-13T12:18:34.838Z,88.29
2022-10-13T12:21:05.619Z,87.30
2022-10-13T12:23:34.017Z,86.71
2022-10-13T12:26:04.826Z,83.25
2022-10-13T12:28:47.959Z,85.70
2022-10-13T12:31:20.829Z,84.66
2022-10-13T12:33:54.464Z,82.94
2022-10-13T12:36:29.349Z,83.80
2022-10-13T12:39:02.333Z,81.54
2022-10-13T12:41:33.687Z,82.83
2022-10-13T12:44:05.577Z,81.67
2022-10-13T12:46:42.223Z,77.64
2022-10-13T12:49:16.160Z,75.49
2022-10-13T12:51:45.936Z,75.38
2022-10-13T12:54:20.907Z,77.29
2022-10-13T12:56:55.260Z,76.10
2022-10-13T12:59:25.482Z,75.64
2022-10-13T13:01:55.758Z,75.84
2022-10-13T13:04:33.164Z,74.06
2022-10-13T13:07:02.572Z,73.11
2022-10-13T13:09:31.987Z,73.84
2022-10-13T13:12:23.767Z,74.47
2022-10-13T13:14:55.001Z,74.51
2022-10-13T13:17:52.811Z,74.10
2022-10-13T13:20:25.657Z,74.51
2022-10-13T13:22:53.505Z,77.18
2022-10-13T13:25:21.377Z,75.68
2022-10-13T13:27:51.281Z,74.14
2022-10-13T13:30:22.099Z,75.75
2022-10-13T13:32:50.789Z,76.44
2022-10-13T13:35:19.198Z,74.74
2022-10-13T13:37:50.551Z,78.98
2022-10-13T13:40:20.568Z,79.59
2022-10-13T13:42:49.857Z,77.34
2022-10-13T13:45:19.167Z,79.16
2022-10-13T13:47:47.310Z,77.85
2022-10-13T13:50:18.114Z,77.82
2022-10-13T13:52:46.115Z,78.77
2022-10-13T13:55:14.009Z,78.12
2022-10-13T13:57:43.178Z,79.45
2022-10-13T14:00:14.886Z,80.24
2022-10-13T14:02:43.643Z,80.10
2022-10-13T14:05:12.409Z,80.06
2022-10-13T14:07:40.560Z,79.58
2022-10-13T14:10:10.788Z,79.48
2022-10-13T14:12:39.059Z,80.76
2022-10-13T14:15:08.006Z,79.61
2022-10-13T14:17:37.189Z,79.54
2022-10-13T14:20:05.862Z,79.48
2022-10-13T14:22:33.651Z,79.67
2022-10-13T14:25:01.530Z,80.65
2022-10-13T14:27:30.831Z,82.04
2022-10-13T14:29:58.694Z,83.29
2022-10-13T14:32:26.633Z,84.35
2022-10-13T14:34:55.773Z,85.63
2022-10-13T14:37:26.697Z,87.24
2022-10-13T14:39:56.925Z,87.27
2022-10-13T14:42:24.721Z,86.66
2022-10-13T14:44:52.524Z,87.84
2022-10-13T14:47:20.633Z,87.09
2022-10-13T14:49:48.671Z,86.25
2022-10-13T14:52:17.956Z,86.29
2022-10-13T14:54:46.014Z,89.49
2022-10-13T14:57:15.898Z,89.30
2022-10-13T14:59:44.015Z,88.78
2022-10-13T15:02:13.014Z,88.70
2022-10-13T15:04:41.021Z,89.07
2022-10-13T15:07:09.252Z,89.68
2022-10-13T15:09:53.290Z,89.76
2022-10-13T15:12:26.286Z,90.20
2022-10-13T15:14:54.154Z,91.57
2022-10-13T15:17:21.949Z,92.13
2022-10-13T15:19:49.968Z,93.78
2022-10-13T15:22:18.005Z,93.88
2022-10-13T15:24:47.353Z,94.86
2022-10-13T15:27:15.167Z,95.46
2022-10-13T15:29:43.075Z,96.49
2022-10-13T15:32:12.878Z,99.09
2022-10-13T15:34:40.750Z,100.00
2022-10-13T15:37:08.966Z,100.00
2022-10-13T15:39:36.750Z,100.00
2022-10-13T15:42:06.807Z,100.00
2022-10-13T15:44:57.367Z,100.00
2022-10-13T15:47:22.523Z,100.00
2022-10-13T15:49:50.388Z,100.00
2022-10-13T15:52:18.557Z,100.00
2022-10-13T15:54:47.015Z,100.00
2022-10-13T15:57:16.192Z,100.00
2022-10-13T15:59:43.994Z,100.00
2022-10-13T16:02:11.810Z,100.00
2022-10-13T16:04:39.659Z,100.00
2022-10-13T16:07:07.510Z,100.00
2022-10-13T16:09:35.319Z,100.00
2022-10-13T16:12:03.191Z,100.00
2022-10-13T16:14:32.572Z,100.00
2022-10-13T16:17:00.417Z,100.00
2022-10-13T16:19:28.351Z,100.00
2022-10-13T16:21:56.196Z,100.00
2022-10-13T16:27:34.861Z,100.00
2022-10-13T16:30:04.187Z,100.00
2022-10-13T16:32:32.062Z,100.00
2022-10-13T16:34:59.838Z,100.00
2022-10-13T16:37:27.750Z,100.00
2022-10-13T16:39:55.581Z,100.00
2022-10-13T16:42:23.454Z,100.00
2022-10-13T16:44:51.331Z,100.00
2022-10-13T16:47:20.662Z,100.00
2022-10-13T16:49:48.778Z,100.00
2022-10-13T16:52:16.588Z,100.00
2022-10-13T16:54:44.403Z,100.00
2022-10-13T16:57:12.299Z,100.00
2022-10-13T16:59:40.162Z,100.00
2022-10-13T17:02:07.992Z,100.00
2022-10-13T17:04:37.231Z,100.00
2022-10-13T17:07:05.044Z,100.00
2022-10-13T17:09:32.828Z,100.00
2022-10-13T17:12:00.700Z,100.00
2022-10-13T17:14:28.510Z,100.00
2022-10-13T17:16:57.896Z,100.00
2022-10-13T17:19:26.577Z,100.00
2022-10-13T17:21:55.769Z,100.00
2022-10-13T17:24:23.560Z,100.00
2022-10-13T17:26:51.557Z,100.00
2022-10-13T17:29:19.463Z,100.00
2022-10-13T17:31:47.533Z,100.00
2022-10-13T17:34:15.413Z,100.00
2022-10-13T17:36:43.201Z,100.00
2022-10-13T17:39:13.694Z,100.00
2022-10-13T17:41:42.413Z,100.00
2022-10-13T17:44:11.116Z,100.00
2022-10-13T17:46:39.786Z,100.00
2022-10-13T17:49:10.693Z,100.00
2022-10-13T17:51:38.878Z,100.00
2022-10-13T17:54:10.136Z,100.00
2022-10-13T17:56:42.186Z,100.00
2022-10-13T17:59:10.849Z,100.00
2022-10-13T18:01:41.934Z,100.00
2022-10-13T18:04:13.806Z,100.00
2022-10-13T18:06:43.988Z,100.00
2022-10-13T18:09:14.478Z,100.00
2022-10-13T18:11:49.794Z,100.00
2022-10-13T18:14:19.563Z,100.00
2022-10-13T18:16:47.422Z,100.00
2022-10-13T18:19:15.370Z,100.00
2022-10-13T18:21:43.566Z,100.00
2022-10-13T18:24:12.449Z,100.00
2022-10-13T18:26:40.778Z,100.00
2022-10-13T18:29:12.694Z,100.00
2022-10-13T18:31:42.519Z,100.00
2022-10-13T18:34:13.682Z,100.00
2022-10-13T18:36:43.926Z,100.00
2022-10-13T18:39:14.997Z,100.00
2022-10-13T18:41:43.072Z,100.00
2022-10-13T18:44:12.582Z,100.00
2022-10-13T18:46:41.471Z,100.00
2022-10-13T18:49:12.478Z,100.00
2022-10-13T18:51:40.399Z,100.00
2022-10-13T18:54:08.966Z,100.00
2022-10-13T18:56:37.794Z,100.00
2022-10-13T18:59:07.431Z,100.00
2022-10-13T19:01:38.959Z,100.00
2022-10-13T19:04:07.199Z,100.00
2022-10-13T19:06:35.573Z,100.00
2022-10-13T19:09:06.198Z,100.00
2022-10-13T19:11:34.712Z,100.00
2022-10-13T19:14:03.296Z,100.00
2022-10-13T19:16:32.494Z,100.00
2022-10-13T19:19:01.683Z,100.00
2022-10-13T19:21:29.795Z,100.00
2022-10-13T19:24:00.167Z,100.00
2022-10-13T19:26:30.856Z,100.00
2022-10-13T19:29:01.800Z,100.00
2022-10-13T19:31:32.359Z,100.00
2022-10-13T19:34:01.850Z,100.00
2022-10-13T19:36:31.714Z,100.00
2022-10-13T19:39:00.267Z,100.00
2022-10-13T19:41:29.776Z,100.00
2022-10-13T19:43:57.986Z,100.00
2022-10-13T19:46:26.079Z,100.00
2022-10-13T19:48:53.890Z,100.00
2022-10-13T19:51:23.096Z,100.00
2022-10-13T19:53:50.890Z,100.00
2022-10-13T19:56:22.355Z,100.00
2022-10-13T19:58:50.237Z,100.00
2022-10-13T20:01:18.906Z,100.00
2022-10-13T20:03:47.399Z,100.00
2022-10-13T20:06:15.827Z,100.00
2022-10-13T20:08:45.949Z,100.00
2022-10-13T20:11:23.834Z,100.00
2022-10-13T20:13:52.814Z,100.00
2022-10-13T20:16:23.669Z,100.00
2022-10-13T20:18:56.167Z,100.00
2022-10-13T20:21:24.692Z,100.00
2022-10-13T20:23:54.246Z,100.00
2022-10-13T20:26:22.278Z,100.00
2022-10-13T20:28:51.848Z,100.00
2022-10-13T20:31:21.864Z,100.00
2022-10-13T20:33:54.738Z,100.00
2022-10-13T20:36:22.813Z,100.00
2022-10-13T20:38:50.887Z,100.00
2022-10-13T20:41:22.571Z,100.00
2022-10-13T20:43:50.815Z,100.00
2022-10-13T20:46:20.443Z,100.00
2022-10-13T20:51:37.422Z,100.00
2022-10-13T20:54:05.765Z,100.00
2022-10-13T20:56:34.964Z,100.00
2022-10-13T20:59:04.212Z,100.00
2022-10-13T21:01:32.188Z,100.00
2022-10-13T21:03:59.985Z,100.00
2022-10-13T21:06:28.406Z,100.00
2022-10-13T21:08:56.257Z,100.00
2022-10-13T21:11:24.851Z,100.00
2022-10-13T21:13:54.492Z,100.00
2022-10-13T21:16:24.250Z,100.00
2022-10-13T21:18:52.716Z,100.00
2022-10-13T21:21:22.486Z,100.00
2022-10-13T21:23:51.219Z,100.00
2022-10-13T21:26:21.940Z,100.00
2022-10-13T21:28:50.962Z,100.00
2022-10-13T21:31:22.233Z,100.00
2022-10-13T21:33:50.632Z,100.00
2022-10-13T21:36:20.946Z,100.00
2022-10-13T21:38:51.318Z,100.00
2022-10-13T21:41:19.363Z,100.00
2022-10-13T21:43:47.476Z,100.00
2022-10-13T21:46:17.486Z,100.00
2022-10-13T21:48:48.034Z,100.00
2022-10-13T21:51:17.604Z,100.00
2022-10-13T21:53:49.855Z,100.00
2022-10-13T21:56:18.257Z,100.00
2022-10-13T21:58:46.187Z,100.00
2022-10-13T22:01:14.219Z,100.00
2022-10-13T22:03:42.584Z,100.00
2022-10-13T22:06:18.467Z,100.00
2022-10-13T22:08:48.367Z,100.00
2022-10-13T22:11:17.448Z,100.00
2022-10-13T22:13:45.751Z,100.00
2022-10-13T22:16:15.799Z,100.00
2022-10-13T22:18:44.522Z,100.00
2022-10-13T22:21:16.095Z,100.00
2022-10-13T22:23:44.818Z,100.00
2022-10-13T22:26:13.774Z,100.00
2022-10-13T22:28:42.583Z,100.00
2022-10-13T22:31:13.687Z,100.00
2022-10-13T22:33:43.664Z,100.00
2022-10-13T22:36:16.255Z,100.00
2022-10-13T22:38:44.225Z,100.00
2022-10-13T22:41:13.142Z,100.00
2022-10-13T22:43:41.955Z,100.00
2022-10-13T22:46:09.785Z,100.00
2022-10-13T22:48:40.712Z,100.00
2022-10-13T22:51:09.680Z,100.00
2022-10-13T22:53:39.003Z,100.00
2022-10-13T22:56:08.078Z,100.00
2022-10-13T22:58:36.808Z,100.00
2022-10-13T23:01:09.827Z,100.00
2022-10-13T23:03:38.227Z,100.00
2022-10-13T23:06:07.355Z,100.00
2022-10-13T23:08:35.936Z,100.00
2022-10-13T23:11:05.311Z,100.00
2022-10-13T23:13:33.085Z,100.00
2022-10-13T23:16:04.450Z,100.00
2022-10-13T23:18:32.311Z,100.00
2022-10-13T23:21:00.126Z,100.00
2022-10-13T23:23:27.931Z,100.00
2022-10-13T23:25:55.819Z,100.00
2022-10-13T23:28:25.117Z,100.00
2022-10-13T23:30:52.939Z,100.00
2022-10-13T23:33:20.822Z,100.00
2022-10-13T23:35:55.006Z,100.00
2022-10-13T23:38:23.210Z,100.00
2022-10-13T23:40:51.379Z,100.00
2022-10-13T23:43:19.865Z,100.00
2022-10-13T23:45:49.259Z,100.00
2022-10-13T23:48:17.043Z,100.00
2022-10-13T23:50:44.819Z,100.00
2022-10-13T23:53:12.695Z,100.00
2022-10-13T23:55:40.818Z,100.00
2022-10-13T23:58:08.715Z,100.00
